Route Details

Aircraft Information
Group: Trans-Atlantic Ops
Types: A31F, B744, B763, MD11
Route Data
Distance: 2940nm
Duration: 7h 25m
Origin METAR: EGNX 160120Z 28004KT CAVOK 18/15 Q1005
Dest. METAR: KJFK 160051Z 12003KT 10SM FEW050 FEW250 22/14 A3000 RMK AO2 SLP158 T02170144
Freight Data
(for Aug 16, 2022)
Load Factor:
71%
Manifested Cargo: 150,770lbs
Financial History
Total Freight: 307,735lbs
Average Load: 0lbs/flt
Fuel Used: 264,061lbs
Avg. Fuel Used: 0lbs/flt
Fuel Expense: $97,229
Avg. Fuel Expense: $0
Avg. Fuel Cost: $0/lbs
Total Gross Income: $701,498
Pilot Pay: $757
Total Expenses: $116,716
Total Revenue: $480,697
Average Revenue: $0

Capitol Logistics 592




EGNX
East Midlands Airport
Derby, GB
KJFK
John F Kennedy International Airport
New York, US